Time;durP1;ratioP1;P1;durP2;ratioP2;P2;SDS_P1;SDS_P2;PMS_P1;PMS_P2;Temp;Humidity;BMP_temperature;BMP_pressure;BME280_temperature;BME280_humidity;BME280_pressure;Samples;Min_cycle;Max_cycle;Signal;HPM_P1;HPM_P2
2024/02/09 00:01:49;;;;;;;;;;;2.60;99.90;;;;;;4993952;28;20650;-75
2024/02/09 00:04:14;;;;;;;;;;;2.60;99.90;;;;;;5034574;28;19928;-75
2024/02/09 00:06:40;;;;;;;;;;;2.60;99.90;;;;;;5017890;28;19999;-76
2024/02/09 00:09:06;;;;;;;;;;;2.60;99.90;;;;;;5021504;28;21960;-76
2024/02/09 00:11:33;;;;;;;;;;;2.60;99.90;;;;;;5014554;28;19920;-75
2024/02/09 00:13:58;;;;;;;;;;;2.60;99.90;;;;;;5018238;28;20509;-75
2024/02/09 00:16:32;;;;;;;;;;;2.60;99.90;;;;;;5010713;28;19921;-76
2024/02/09 00:18:57;;;;;;;;;;;2.60;99.90;;;;;;5014204;28;19976;-75
2024/02/09 00:21:23;;;;;;;;;;;2.60;99.90;;;;;;5014525;28;19921;-76
2024/02/09 00:23:49;;;;;;;;;;;2.70;99.90;;;;;;5029078;28;19927;-75
2024/02/09 00:26:14;;;;;;;;;;;2.70;99.90;;;;;;5007542;28;19917;-75
2024/02/09 00:28:42;;;;;;;;;;;2.70;99.90;;;;;;5030578;28;19964;-75
2024/02/09 00:31:10;;;;;;;;;;;2.70;99.90;;;;;;5027168;28;20253;-76
2024/02/09 00:33:36;;;;;;;;;;;2.60;99.90;;;;;;5022324;28;19925;-76
2024/02/09 00:36:04;;;;;;;;;;;2.80;99.90;;;;;;5013667;28;22140;-76
2024/02/09 00:38:32;;;;;;;;;;;2.80;99.90;;;;;;5021244;28;19917;-75
2024/02/09 00:40:58;;;;;;;;;;;2.70;99.90;;;;;;5005574;28;19913;-76
2024/02/09 00:43:27;;;;;;;;;;;2.70;99.90;;;;;;5027706;28;19927;-76
2024/02/09 00:45:55;;;;;;;;;;;2.70;99.90;;;;;;5029897;28;19940;-76
2024/02/09 00:48:23;;;;;;;;;;;2.70;99.90;;;;;;5016705;28;19917;-76
2024/02/09 00:50:51;;;;;;;;;;;2.70;99.90;;;;;;5000063;28;19921;-75
2024/02/09 00:53:20;;;;;;;;;;;2.80;99.90;;;;;;5025441;28;20337;-74
2024/02/09 00:55:48;;;;;;;;;;;2.80;99.90;;;;;;5016141;28;19921;-76
2024/02/09 00:58:18;;;;;;;;;;;2.70;99.90;;;;;;5034717;28;19913;-76
2024/02/09 01:00:46;;;;;;;;;;;2.70;99.90;;;;;;5023751;28;20802;-76
2024/02/09 01:03:15;;;;;;;;;;;2.80;99.90;;;;;;5008909;28;19925;-77
2024/02/09 01:05:42;;;;;;;;;;;2.80;99.90;;;;;;5033575;28;19917;-77
2024/02/09 01:08:08;;;;;;;;;;;2.80;99.90;;;;;;5017464;28;19917;-76
2024/02/09 01:10:36;;;;;;;;;;;2.80;99.90;;;;;;5024624;28;19917;-76
2024/02/09 02:46:16;;;;;;;;;;;3.00;99.90;;;;;;5028702;28;19925;-76
2024/02/09 03:05:14;;;;;;;;;;;3.00;99.90;;;;;;5036685;28;19913;-75
2024/02/09 03:07:52;;;;;;;;;;;3.00;99.90;;;;;;5015532;28;19921;-77
2024/02/09 03:10:18;;;;;;;;;;;3.00;99.90;;;;;;4999340;28;19914;-74
2024/02/09 03:12:44;;;;;;;;;;;3.00;99.90;;;;;;5001651;28;19967;-75
2024/02/09 03:15:10;;;;;;;;;;;3.10;99.90;;;;;;5035603;28;19975;-75
2024/02/09 03:17:37;;;;;;;;;;;3.00;99.90;;;;;;5018833;28;19967;-76
2024/02/09 03:20:04;;;;;;;;;;;3.00;99.90;;;;;;5035336;28;19913;-74
2024/02/09 03:22:30;;;;;;;;;;;3.00;99.90;;;;;;5014225;28;19913;-75
2024/02/09 03:25:02;;;;;;;;;;;3.00;99.90;;;;;;5016471;28;19982;-77
2024/02/09 03:27:48;;;;;;;;;;;2.90;99.90;;;;;;5016362;28;20404;-77
2024/02/09 03:30:16;;;;;;;;;;;3.00;99.90;;;;;;5015255;28;19913;-76
2024/02/09 03:32:45;;;;;;;;;;;3.00;99.90;;;;;;5015208;28;19918;-74
2024/02/09 03:35:12;;;;;;;;;;;3.00;99.90;;;;;;5014725;28;19983;-76
2024/02/09 03:37:44;;;;;;;;;;;3.10;99.90;;;;;;5014874;28;19977;-76
2024/02/09 03:40:12;;;;;;;;;;;3.00;99.90;;;;;;5000513;28;19988;-76
2024/02/09 03:42:38;;;;;;;;;;;3.10;99.90;;;;;;5029114;28;19956;-76
2024/02/09 03:45:06;;;;;;;;;;;3.00;99.90;;;;;;4999383;28;19917;-76
2024/02/09 03:47:32;;;;;;;;;;;3.00;99.90;;;;;;5020726;28;19974;-77
2024/02/09 03:49:58;;;;;;;;;;;2.90;99.90;;;;;;5002662;28;20267;-76
2024/02/09 03:52:24;;;;;;;;;;;3.00;99.90;;;;;;5034693;28;20106;-76
2024/02/09 03:54:52;;;;;;;;;;;3.00;99.90;;;;;;5017339;28;19983;-76
2024/02/09 03:57:21;;;;;;;;;;;3.10;99.90;;;;;;5034542;28;19917;-76
2024/02/09 03:59:47;;;;;;;;;;;3.10;99.90;;;;;;5034122;28;19924;-76
2024/02/09 04:02:13;;;;;;;;;;;3.10;99.90;;;;;;5035673;28;19917;-76
2024/02/09 04:04:39;;;;;;;;;;;3.00;99.90;;;;;;5018392;28;19917;-76
2024/02/09 04:07:08;;;;;;;;;;;3.10;99.90;;;;;;5020201;28;19917;-76
2024/02/09 04:09:36;;;;;;;;;;;3.00;99.90;;;;;;5033015;28;19913;-76
2024/02/09 04:12:02;;;;;;;;;;;3.10;99.90;;;;;;4983814;28;19918;-77
2024/02/09 04:14:30;;;;;;;;;;;3.10;99.90;;;;;;4983017;28;19961;-77
2024/02/09 04:16:56;;;;;;;;;;;3.10;99.90;;;;;;5001571;28;19917;-76
2024/02/09 04:19:22;;;;;;;;;;;3.10;99.90;;;;;;5029536;28;19913;-76
2024/02/09 04:21:50;;;;;;;;;;;3.20;99.90;;;;;;4998834;28;19913;-74
2024/02/09 04:24:19;;;;;;;;;;;3.20;99.90;;;;;;5006446;28;19946;-76
2024/02/09 04:26:46;;;;;;;;;;;3.20;99.90;;;;;;4998762;28;20326;-76
2024/02/09 04:29:15;;;;;;;;;;;3.10;99.90;;;;;;5013854;28;19931;-76
2024/02/09 04:31:47;;;;;;;;;;;3.10;99.90;;;;;;5015914;28;20025;-76
2024/02/09 04:34:15;;;;;;;;;;;3.20;99.90;;;;;;4998114;28;19979;-76
2024/02/09 04:36:41;;;;;;;;;;;3.20;99.90;;;;;;5016964;28;19956;-77
2024/02/09 04:39:10;;;;;;;;;;;3.10;99.90;;;;;;5033698;28;19917;-76
2024/02/09 04:41:44;;;;;;;;;;;3.20;99.90;;;;;;5030984;28;19925;-74
2024/02/09 04:44:10;;;;;;;;;;;3.10;99.90;;;;;;4998863;28;20609;-76
2024/02/09 04:46:36;;;;;;;;;;;3.10;99.90;;;;;;5040167;28;19956;-76
2024/02/09 04:49:03;;;;;;;;;;;3.20;99.90;;;;;;5013894;28;19913;-76
2024/02/09 04:51:29;;;;;;;;;;;3.10;99.90;;;;;;4999298;28;19914;-76
2024/02/09 04:53:55;;;;;;;;;;;3.20;99.90;;;;;;5014988;28;19927;-75
2024/02/09 04:56:30;;;;;;;;;;;3.20;99.90;;;;;;4998617;28;19914;-76
2024/02/09 04:58:56;;;;;;;;;;;3.10;99.90;;;;;;4982224;28;19917;-77
2024/02/09 05:01:27;;;;;;;;;;;3.10;99.90;;;;;;5016441;28;19921;-76
2024/02/09 05:03:56;;;;;;;;;;;3.10;99.90;;;;;;5034316;28;20699;-75
2024/02/09 05:06:26;;;;;;;;;;;3.20;99.90;;;;;;5019254;28;20392;-76
2024/02/09 05:08:52;;;;;;;;;;;3.10;99.90;;;;;;4998918;28;19914;-75
2024/02/09 05:11:21;;;;;;;;;;;3.10;99.90;;;;;;4999905;28;20316;-76
2024/02/09 05:13:50;;;;;;;;;;;3.20;99.90;;;;;;5005146;28;19928;-77
2024/02/09 05:16:16;;;;;;;;;;;3.20;99.90;;;;;;5038372;28;20025;-77
2024/02/09 05:18:42;;;;;;;;;;;3.20;99.90;;;;;;5019300;28;19918;-77
2024/02/09 05:21:09;;;;;;;;;;;3.30;99.90;;;;;;5000249;28;19966;-77
2024/02/09 05:23:37;;;;;;;;;;;3.20;99.90;;;;;;5020403;28;19921;-76
2024/02/09 05:26:03;;;;;;;;;;;3.20;99.90;;;;;;5018331;28;19968;-75
2024/02/09 05:28:32;;;;;;;;;;;3.30;99.90;;;;;;5002420;28;19924;-75
2024/02/09 05:30:58;;;;;;;;;;;3.30;99.90;;;;;;5002506;28;20357;-75
2024/02/09 05:33:24;;;;;;;;;;;3.20;99.90;;;;;;5002022;28;20015;-76
2024/02/09 05:35:51;;;;;;;;;;;3.30;99.90;;;;;;5036045;28;19917;-76
2024/02/09 05:38:18;;;;;;;;;;;3.20;99.90;;;;;;5000933;28;19917;-76
2024/02/09 05:40:44;;;;;;;;;;;3.40;99.90;;;;;;4998938;28;20012;-76
2024/02/09 05:43:10;;;;;;;;;;;3.30;99.90;;;;;;5036297;28;19976;-75
2024/02/09 05:45:38;;;;;;;;;;;3.30;99.90;;;;;;5018109;28;19917;-76
2024/02/09 05:48:05;;;;;;;;;;;3.30;99.90;;;;;;5001120;28;20333;-76
2024/02/09 05:50:32;;;;;;;;;;;3.30;99.90;;;;;;5038553;28;19996;-75
2024/02/09 05:52:58;;;;;;;;;;;3.30;99.90;;;;;;5018546;28;19963;-75
2024/02/09 05:55:27;;;;;;;;;;;3.30;99.90;;;;;;5036849;28;19928;-75
2024/02/09 05:57:55;;;;;;;;;;;3.30;99.90;;;;;;5037345;28;20245;-76
2024/02/09 06:00:21;;;;;;;;;;;3.40;99.90;;;;;;5036229;28;19967;-74
2024/02/09 06:02:51;;;;;;;;;;;3.40;99.90;;;;;;5000408;28;19925;-75
2024/02/09 06:05:16;;;;;;;;;;;3.40;99.90;;;;;;5018103;28;19953;-76
2024/02/09 06:07:50;;;;;;;;;;;3.40;99.90;;;;;;5001177;28;19955;-76
2024/02/09 06:10:15;;;;;;;;;;;3.30;99.90;;;;;;5031303;28;19921;-75
2024/02/09 06:12:43;;;;;;;;;;;3.40;99.90;;;;;;5036637;28;20292;-76
2024/02/09 06:15:11;;;;;;;;;;;3.40;99.90;;;;;;5036390;28;19928;-76
2024/02/09 06:17:46;;;;;;;;;;;3.40;99.90;;;;;;5036237;28;19913;-75
2024/02/09 06:20:12;;;;;;;;;;;3.40;99.90;;;;;;5035401;28;19917;-75
2024/02/09 06:22:47;;;;;;;;;;;3.40;99.90;;;;;;5035687;28;19960;-75
2024/02/09 06:25:12;;;;;;;;;;;3.40;99.90;;;;;;5020906;28;19923;-75
2024/02/09 06:27:38;;;;;;;;;;;3.40;99.90;;;;;;5036746;28;19914;-75
2024/02/09 06:30:04;;;;;;;;;;;3.40;99.90;;;;;;5015153;28;20052;-76
2024/02/09 06:32:31;;;;;;;;;;;3.50;99.90;;;;;;5015554;28;20337;-75
2024/02/09 06:34:59;;;;;;;;;;;3.50;99.90;;;;;;5020751;28;20055;-75
2024/02/09 06:37:25;;;;;;;;;;;3.50;99.90;;;;;;5033834;28;19988;-76
2024/02/09 06:39:53;;;;;;;;;;;3.50;99.90;;;;;;5018651;28;19940;-75
2024/02/09 06:42:20;;;;;;;;;;;3.50;99.90;;;;;;5035883;28;19992;-75
2024/02/09 06:44:46;;;;;;;;;;;3.50;99.90;;;;;;5019954;28;20253;-75
2024/02/09 06:47:12;;;;;;;;;;;3.50;99.90;;;;;;5026109;28;19914;-76
2024/02/09 06:49:44;;;;;;;;;;;3.50;99.90;;;;;;5028605;28;19913;-76
2024/02/09 06:52:11;;;;;;;;;;;3.60;99.90;;;;;;5036596;28;19978;-76
2024/02/09 06:54:37;;;;;;;;;;;3.60;99.90;;;;;;5036407;28;19927;-76
2024/02/09 06:57:03;;;;;;;;;;;3.60;99.90;;;;;;5036246;28;19913;-76
2024/02/09 06:59:28;;;;;;;;;;;3.60;99.90;;;;;;5015896;28;20607;-76
2024/02/09 07:01:55;;;;;;;;;;;3.60;99.90;;;;;;5035017;28;19974;-77
2024/02/09 07:04:23;;;;;;;;;;;3.60;99.90;;;;;;5035581;28;20318;-75
2024/02/09 07:06:51;;;;;;;;;;;3.60;99.90;;;;;;5017191;28;19972;-75
2024/02/09 07:09:21;;;;;;;;;;;3.60;99.90;;;;;;5016491;28;19917;-76
2024/02/09 07:11:47;;;;;;;;;;;3.60;99.90;;;;;;5024325;28;19925;-77
2024/02/09 07:14:16;;;;;;;;;;;3.60;99.90;;;;;;5015428;28;19921;-77
2024/02/09 07:16:42;;;;;;;;;;;3.60;99.90;;;;;;5018484;28;19913;-77
2024/02/09 07:19:09;;;;;;;;;;;3.60;99.90;;;;;;5002168;28;20236;-77
2024/02/09 07:21:36;;;;;;;;;;;3.60;99.90;;;;;;5017672;28;19967;-77
2024/02/09 07:24:01;;;;;;;;;;;3.60;99.90;;;;;;5018848;28;19917;-77
2024/02/09 07:26:27;;;;;;;;;;;3.60;99.90;;;;;;5033091;28;19974;-77
2024/02/09 07:28:53;;;;;;;;;;;3.70;99.90;;;;;;4998941;28;19921;-77
2024/02/09 07:31:21;;;;;;;;;;;3.70;99.90;;;;;;5032273;28;19913;-77
2024/02/09 07:33:46;;;;;;;;;;;3.70;99.90;;;;;;5017846;28;19975;-77
2024/02/09 07:36:12;;;;;;;;;;;3.70;99.90;;;;;;5030520;28;19968;-77
2024/02/09 07:38:38;;;;;;;;;;;3.70;99.90;;;;;;4999784;28;19920;-77
2024/02/09 07:41:04;;;;;;;;;;;3.70;99.90;;;;;;5014555;28;20151;-77
2024/02/09 07:43:29;;;;;;;;;;;3.70;99.90;;;;;;4998477;28;19940;-77
2024/02/09 07:45:55;;;;;;;;;;;3.80;99.90;;;;;;5014571;28;19913;-77
2024/02/09 07:48:21;;;;;;;;;;;3.80;99.90;;;;;;4993552;28;19967;-77
2024/02/09 07:50:51;;;;;;;;;;;3.80;99.90;;;;;;5031162;28;19917;-76
2024/02/09 07:53:17;;;;;;;;;;;3.80;99.90;;;;;;5015493;28;19918;-77
2024/02/09 07:55:42;;;;;;;;;;;3.80;99.90;;;;;;5014426;28;19928;-76
2024/02/09 07:58:08;;;;;;;;;;;3.90;99.90;;;;;;5003642;28;19932;-76
2024/02/09 08:00:34;;;;;;;;;;;3.80;99.90;;;;;;5028758;28;19920;-76
2024/02/09 08:02:59;;;;;;;;;;;3.90;99.90;;;;;;5019258;28;19927;-77
2024/02/09 08:05:26;;;;;;;;;;;3.90;99.90;;;;;;5010537;28;19921;-76
2024/02/09 08:07:52;;;;;;;;;;;3.90;99.90;;;;;;5031235;28;19929;-76
2024/02/09 08:10:17;;;;;;;;;;;3.90;99.90;;;;;;4999589;28;20555;-77
2024/02/09 08:12:44;;;;;;;;;;;3.90;99.90;;;;;;5015880;28;19913;-76
2024/02/09 08:15:10;;;;;;;;;;;3.90;99.90;;;;;;5011835;28;20028;-77
2024/02/09 08:17:37;;;;;;;;;;;3.90;99.90;;;;;;5010917;28;20008;-76
2024/02/09 08:20:04;;;;;;;;;;;3.90;99.90;;;;;;5015227;28;19917;-76
2024/02/09 08:22:32;;;;;;;;;;;3.90;99.90;;;;;;5009993;28;20004;-77
2024/02/09 08:25:01;;;;;;;;;;;4.00;99.90;;;;;;5006574;28;19921;-77
2024/02/09 08:27:27;;;;;;;;;;;4.00;99.90;;;;;;4998180;28;19960;-77
2024/02/09 08:29:56;;;;;;;;;;;4.00;99.90;;;;;;5029553;28;19928;-77
2024/02/09 08:32:22;;;;;;;;;;;4.10;99.90;;;;;;5027322;28;20310;-77
2024/02/09 08:34:50;;;;;;;;;;;4.10;99.90;;;;;;5012556;28;20377;-76
2024/02/09 08:37:19;;;;;;;;;;;4.10;99.90;;;;;;4990741;28;19917;-77
2024/02/09 08:39:49;;;;;;;;;;;4.20;99.90;;;;;;5000582;28;20361;-77
2024/02/09 08:42:15;;;;;;;;;;;4.20;99.90;;;;;;5017247;28;20348;-76
2024/02/09 08:44:41;;;;;;;;;;;4.20;99.90;;;;;;5000145;28;19917;-77
2024/02/09 08:47:07;;;;;;;;;;;4.20;99.90;;;;;;5016378;28;19917;-76
2024/02/09 08:49:33;;;;;;;;;;;4.30;99.90;;;;;;5025372;28;19948;-77
2024/02/09 08:51:58;;;;;;;;;;;4.30;99.90;;;;;;5015474;28;20333;-76
2024/02/09 08:54:24;;;;;;;;;;;4.30;99.90;;;;;;5020005;28;20667;-75
2024/02/09 08:56:51;;;;;;;;;;;4.30;99.90;;;;;;5023458;28;19920;-75
2024/02/09 08:59:17;;;;;;;;;;;4.30;99.90;;;;;;5028790;28;20010;-75
2024/02/09 09:01:43;;;;;;;;;;;4.40;99.90;;;;;;5018338;28;20304;-75
2024/02/09 09:04:09;;;;;;;;;;;4.40;99.90;;;;;;4998549;28;19957;-74
2024/02/09 09:06:34;;;;;;;;;;;4.50;99.90;;;;;;5014878;28;20396;-75
2024/02/09 09:09:00;;;;;;;;;;;4.50;99.90;;;;;;5015065;28;19913;-76
2024/02/09 09:11:26;;;;;;;;;;;4.50;99.90;;;;;;5028074;28;19913;-76
2024/02/09 09:13:51;;;;;;;;;;;4.50;99.90;;;;;;5034414;28;19936;-76
2024/02/09 09:16:17;;;;;;;;;;;4.50;99.90;;;;;;5030480;28;20028;-76
2024/02/09 09:18:45;;;;;;;;;;;4.60;99.90;;;;;;5032633;28;19968;-77
2024/02/09 09:21:11;;;;;;;;;;;4.60;99.90;;;;;;5017228;28;19913;-77
2024/02/09 09:23:39;;;;;;;;;;;4.60;99.90;;;;;;5030789;28;19917;-76
2024/02/09 09:26:05;;;;;;;;;;;4.60;99.90;;;;;;4997583;28;20262;-76
2024/02/09 09:28:30;;;;;;;;;;;4.70;99.90;;;;;;5028811;28;20334;-74
2024/02/09 09:30:56;;;;;;;;;;;4.80;99.90;;;;;;5035476;28;19913;-80
2024/02/09 09:33:23;;;;;;;;;;;4.80;99.90;;;;;;5010075;28;19928;-80
2024/02/09 09:35:49;;;;;;;;;;;4.90;99.90;;;;;;5034287;28;19921;-75
2024/02/09 09:38:15;;;;;;;;;;;5.00;99.90;;;;;;5029714;28;20082;-75
2024/02/09 09:40:41;;;;;;;;;;;5.10;99.90;;;;;;4999148;28;19917;-74
2024/02/09 09:43:07;;;;;;;;;;;5.10;99.90;;;;;;5030405;28;20253;-77
2024/02/09 09:45:34;;;;;;;;;;;5.20;99.90;;;;;;5004126;28;19955;-75
2024/02/09 09:48:00;;;;;;;;;;;5.20;99.90;;;;;;5017070;28;19917;-75
2024/02/09 09:50:26;;;;;;;;;;;5.20;99.90;;;;;;5015645;28;20392;-75
2024/02/09 09:52:52;;;;;;;;;;;5.30;99.90;;;;;;4995227;28;19913;-76
2024/02/09 09:55:18;;;;;;;;;;;5.30;99.90;;;;;;5016886;28;19923;-76
2024/02/09 09:57:44;;;;;;;;;;;5.30;99.90;;;;;;4999375;28;20016;-76
2024/02/09 10:00:10;;;;;;;;;;;5.30;99.90;;;;;;5018890;28;20008;-76
2024/02/09 10:02:37;;;;;;;;;;;5.40;99.90;;;;;;5021863;28;19918;-76
2024/02/09 10:05:03;;;;;;;;;;;5.40;99.90;;;;;;4996181;28;19959;-76
2024/02/09 10:07:29;;;;;;;;;;;5.50;99.90;;;;;;5003031;28;19921;-76
2024/02/09 10:09:57;;;;;;;;;;;5.50;99.90;;;;;;5020977;28;19967;-79
2024/02/09 10:12:24;;;;;;;;;;;5.50;99.90;;;;;;4997261;28;20322;-80
2024/02/09 10:14:49;;;;;;;;;;;5.60;99.90;;;;;;5017045;28;19921;-78
2024/02/09 10:17:15;;;;;;;;;;;5.70;99.90;;;;;;5024782;28;19980;-78
2024/02/09 10:19:42;;;;;;;;;;;5.80;99.90;;;;;;4997219;28;19924;-80
2024/02/09 10:22:09;;;;;;;;;;;5.80;99.90;;;;;;5006963;28;19921;-78
2024/02/09 10:24:39;;;;;;;;;;;6.00;99.90;;;;;;5016779;28;19917;-78
2024/02/09 10:27:06;;;;;;;;;;;6.10;99.90;;;;;;5019959;28;19952;-77
2024/02/09 10:29:32;;;;;;;;;;;6.30;99.90;;;;;;4998055;28;19963;-77
2024/02/09 10:31:57;;;;;;;;;;;6.50;99.90;;;;;;4994378;28;20008;-77
2024/02/09 10:34:23;;;;;;;;;;;6.70;99.90;;;;;;5019344;28;20472;-76
2024/02/09 10:36:49;;;;;;;;;;;6.90;99.90;;;;;;5029464;28;19924;-76
2024/02/09 10:39:17;;;;;;;;;;;7.10;99.90;;;;;;5024980;28;20675;-77
2024/02/09 10:41:52;;;;;;;;;;;7.20;99.90;;;;;;5035812;28;19936;-77
2024/02/09 10:44:20;;;;;;;;;;;7.40;99.90;;;;;;5019816;28;20024;-77
2024/02/09 10:46:46;;;;;;;;;;;7.40;99.90;;;;;;5026489;28;19917;-77
2024/02/09 10:49:12;;;;;;;;;;;7.50;99.90;;;;;;5026748;28;19924;-77
2024/02/09 10:51:39;;;;;;;;;;;7.50;99.90;;;;;;5031128;28;19927;-77
2024/02/09 10:54:24;;;;;;;;;;;7.60;99.90;;;;;;4999123;28;19925;-77
2024/02/09 10:56:50;;;;;;;;;;;7.60;99.90;;;;;;5031100;28;19968;-77
2024/02/09 10:59:18;;;;;;;;;;;7.60;99.90;;;;;;5013908;28;19917;-76
2024/02/09 11:01:45;;;;;;;;;;;7.70;99.90;;;;;;5017981;28;19953;-78
2024/02/09 11:04:12;;;;;;;;;;;7.70;99.90;;;;;;5024001;28;19988;-77
2024/02/09 11:06:41;;;;;;;;;;;7.80;99.90;;;;;;4983377;28;19918;-77
2024/02/09 11:09:09;;;;;;;;;;;7.70;99.90;;;;;;5014479;28;19952;-76
2024/02/09 11:11:36;;;;;;;;;;;7.80;99.90;;;;;;5018561;28;19922;-77
2024/02/09 11:14:04;;;;;;;;;;;7.80;99.90;;;;;;5024355;28;20320;-77
2024/02/09 11:16:30;;;;;;;;;;;7.90;99.90;;;;;;5027442;28;19963;-78
2024/02/09 11:18:57;;;;;;;;;;;7.90;99.90;;;;;;4997878;28;19961;-78
2024/02/09 11:21:24;;;;;;;;;;;7.90;99.90;;;;;;5016388;28;20337;-78
2024/02/09 11:23:49;;;;;;;;;;;7.90;99.90;;;;;;4994957;28;19917;-77
2024/02/09 11:26:15;;;;;;;;;;;7.90;99.90;;;;;;5011548;28;19928;-78
2024/02/09 11:28:41;;;;;;;;;;;7.90;99.90;;;;;;4998963;28;19914;-78
2024/02/09 11:31:07;;;;;;;;;;;7.90;99.90;;;;;;4999491;28;20326;-78
2024/02/09 11:33:33;;;;;;;;;;;7.90;99.90;;;;;;5026962;28;19925;-79
2024/02/09 11:36:01;;;;;;;;;;;7.90;99.90;;;;;;5018376;28;19918;-77
2024/02/09 11:38:28;;;;;;;;;;;7.90;99.90;;;;;;5029232;28;19928;-77
2024/02/09 11:40:53;;;;;;;;;;;8.00;99.90;;;;;;5005265;28;19956;-77
2024/02/09 11:43:19;;;;;;;;;;;8.00;99.90;;;;;;5009726;28;19959;-78
2024/02/09 11:45:45;;;;;;;;;;;8.20;99.90;;;;;;5005863;28;19944;-78
2024/02/09 11:48:12;;;;;;;;;;;8.20;99.90;;;;;;5034355;28;19920;-77
2024/02/09 11:50:39;;;;;;;;;;;8.30;99.90;;;;;;5015432;28;19914;-77
2024/02/09 11:53:08;;;;;;;;;;;8.40;99.90;;;;;;5001945;28;19921;-77
2024/02/09 11:55:40;;;;;;;;;;;8.40;99.90;;;;;;5001366;28;19921;-78
2024/02/09 11:58:08;;;;;;;;;;;8.50;99.90;;;;;;5028823;28;20647;-78
2024/02/09 12:00:35;;;;;;;;;;;8.60;99.90;;;;;;5001997;28;20381;-79
2024/02/09 12:03:01;;;;;;;;;;;8.70;99.90;;;;;;5013175;28;19940;-78
2024/02/09 12:05:26;;;;;;;;;;;8.70;99.90;;;;;;4991830;28;20334;-78
2024/02/09 12:07:52;;;;;;;;;;;8.80;99.90;;;;;;5019337;28;19999;-78
2024/02/09 12:10:19;;;;;;;;;;;8.90;99.90;;;;;;4995135;28;19918;-79
2024/02/09 12:12:47;;;;;;;;;;;9.00;99.90;;;;;;5014155;28;19921;-79
2024/02/09 12:15:14;;;;;;;;;;;9.00;99.90;;;;;;5001098;28;20308;-78
2024/02/09 12:17:43;;;;;;;;;;;9.10;99.90;;;;;;5007132;28;20317;-78
2024/02/09 12:20:09;;;;;;;;;;;9.20;99.90;;;;;;5024262;28;20345;-78
2024/02/09 12:22:36;;;;;;;;;;;9.40;99.90;;;;;;5012665;28;19967;-79
2024/02/09 12:25:05;;;;;;;;;;;9.60;99.90;;;;;;5013452;28;19929;-79
2024/02/09 12:27:31;;;;;;;;;;;9.90;99.90;;;;;;4997210;28;19914;-78
2024/02/09 12:30:00;;;;;;;;;;;10.00;99.90;;;;;;5008620;28;19948;-78
2024/02/09 12:32:25;;;;;;;;;;;10.10;99.90;;;;;;5012432;28;20004;-78
2024/02/09 12:34:51;;;;;;;;;;;10.30;99.90;;;;;;5002434;28;19984;-79
2024/02/09 12:37:18;;;;;;;;;;;10.40;99.90;;;;;;5013640;28;20010;-78
2024/02/09 12:39:58;;;;;;;;;;;10.70;99.90;;;;;;5011753;28;19936;-75
2024/02/09 12:42:31;;;;;;;;;;;11.20;99.90;;;;;;5029450;28;19924;-75
2024/02/09 12:45:00;;;;;;;;;;;11.70;99.90;;;;;;4999109;28;19928;-75
2024/02/09 12:47:26;;;;;;;;;;;11.90;99.90;;;;;;5024902;28;19956;-80
2024/02/09 12:49:52;;;;;;;;;;;12.30;99.90;;;;;;5021716;28;19921;-80
2024/02/09 12:52:19;;;;;;;;;;;12.60;99.90;;;;;;5028215;28;19917;-79
2024/02/09 12:54:47;;;;;;;;;;;12.60;99.90;;;;;;5001650;28;19938;-80
2024/02/09 12:57:19;;;;;;;;;;;12.60;99.90;;;;;;5016970;28;19959;-79
2024/02/09 12:59:46;;;;;;;;;;;12.60;99.90;;;;;;4998965;28;20004;-81
2024/02/09 13:02:22;;;;;;;;;;;12.80;99.90;;;;;;5000384;28;19913;-79
2024/02/09 13:04:55;;;;;;;;;;;13.10;99.90;;;;;;5019949;28;19920;-79
2024/02/09 13:07:23;;;;;;;;;;;13.40;99.90;;;;;;5005886;28;19913;-78
2024/02/09 13:09:55;;;;;;;;;;;13.60;99.90;;;;;;4995707;28;19918;-80
2024/02/09 13:12:21;;;;;;;;;;;13.70;99.90;;;;;;4993382;28;20412;-79
2024/02/09 13:14:53;;;;;;;;;;;13.90;99.90;;;;;;4985261;28;20647;-80
2024/02/09 13:17:20;;;;;;;;;;;14.00;99.90;;;;;;5014362;28;19953;-79
2024/02/09 13:19:46;;;;;;;;;;;14.00;99.90;;;;;;4998896;28;19913;-79
2024/02/09 13:22:18;;;;;;;;;;;14.00;99.90;;;;;;4998971;28;19917;-80
2024/02/09 13:24:45;;;;;;;;;;;14.00;99.90;;;;;;5007752;28;19913;-79
2024/02/09 13:27:16;;;;;;;;;;;13.90;99.90;;;;;;5006457;28;20416;-80
2024/02/09 13:29:44;;;;;;;;;;;14.00;99.90;;;;;;4998972;28;20262;-79
2024/02/09 13:32:13;;;;;;;;;;;14.00;99.90;;;;;;5007743;28;20325;-76
2024/02/09 13:34:39;;;;;;;;;;;13.90;99.90;;;;;;5034519;28;19936;-75
2024/02/09 13:37:05;;;;;;;;;;;13.60;99.90;;;;;;5000365;28;19917;-75
2024/02/09 13:39:31;;;;;;;;;;;13.40;99.90;;;;;;4993246;28;19917;-76
2024/02/09 13:41:59;;;;;;;;;;;13.20;99.90;;;;;;5010269;28;19917;-75
2024/02/09 13:44:25;;;;;;;;;;;13.10;99.90;;;;;;5015113;28;20047;-76
2024/02/09 13:46:51;;;;;;;;;;;13.00;99.90;;;;;;5019439;28;20012;-76
2024/02/09 13:49:17;;;;;;;;;;;12.90;99.90;;;;;;5019032;28;19923;-76
2024/02/09 13:51:43;;;;;;;;;;;12.80;99.90;;;;;;5027049;28;19965;-76
2024/02/09 13:54:09;;;;;;;;;;;12.70;99.90;;;;;;4982502;28;20011;-76
2024/02/09 13:56:38;;;;;;;;;;;12.70;99.90;;;;;;5031618;28;19921;-76
2024/02/09 13:59:04;;;;;;;;;;;12.60;99.90;;;;;;5009995;28;19929;-76
2024/02/09 14:01:30;;;;;;;;;;;12.60;99.90;;;;;;5025581;28;19924;-76
2024/02/09 14:03:56;;;;;;;;;;;12.60;99.90;;;;;;5013235;28;19917;-76
2024/02/09 14:06:24;;;;;;;;;;;12.50;99.90;;;;;;4999362;28;19944;-76
2024/02/09 14:08:50;;;;;;;;;;;12.50;99.90;;;;;;5017461;28;19923;-76
2024/02/09 14:11:18;;;;;;;;;;;12.50;99.90;;;;;;5014934;28;19925;-76
2024/02/09 14:13:45;;;;;;;;;;;12.50;99.90;;;;;;5017961;28;19925;-76
2024/02/09 14:16:10;;;;;;;;;;;12.50;99.90;;;;;;5033817;28;19927;-76
2024/02/09 14:18:36;;;;;;;;;;;12.40;99.90;;;;;;5032242;28;20005;-76
2024/02/09 14:21:06;;;;;;;;;;;12.40;99.90;;;;;;5009255;28;19922;-76
2024/02/09 14:23:32;;;;;;;;;;;12.40;99.90;;;;;;5013514;28;19917;-76
2024/02/09 14:25:58;;;;;;;;;;;12.30;99.90;;;;;;5026788;28;20368;-76
2024/02/09 14:28:25;;;;;;;;;;;12.30;99.90;;;;;;4985591;28;19913;-76
2024/02/09 14:30:50;;;;;;;;;;;12.30;99.90;;;;;;5012828;28;19917;-76
2024/02/09 14:33:16;;;;;;;;;;;12.20;99.90;;;;;;5033926;28;20230;-75
2024/02/09 14:35:44;;;;;;;;;;;12.20;99.90;;;;;;5031543;28;19956;-75
2024/02/09 14:38:09;;;;;;;;;;;12.20;99.90;;;;;;5028038;28;19924;-75
2024/02/09 14:40:36;;;;;;;;;;;12.20;99.90;;;;;;5017844;28;19925;-76
2024/02/09 14:43:03;;;;;;;;;;;12.10;99.90;;;;;;5024485;28;19917;-76
2024/02/09 14:45:29;;;;;;;;;;;12.10;99.90;;;;;;5011545;28;19924;-76
2024/02/09 14:47:57;;;;;;;;;;;12.10;99.90;;;;;;5033777;28;19921;-76
2024/02/09 14:50:29;;;;;;;;;;;12.00;99.90;;;;;;5025022;28;20340;-76
2024/02/09 14:52:57;;;;;;;;;;;12.00;99.90;;;;;;5025558;28;19917;-76
2024/02/09 14:55:24;;;;;;;;;;;12.00;99.90;;;;;;5031112;28;19920;-76
2024/02/09 14:57:54;;;;;;;;;;;12.00;99.90;;;;;;5014215;28;19957;-76
2024/02/09 15:00:21;;;;;;;;;;;12.00;99.90;;;;;;5026854;28;19928;-76
2024/02/09 15:02:48;;;;;;;;;;;12.00;99.90;;;;;;5011493;28;20305;-76
2024/02/09 15:05:14;;;;;;;;;;;11.90;99.90;;;;;;5026437;28;20420;-76
2024/02/09 15:07:41;;;;;;;;;;;11.90;99.90;;;;;;5000539;28;20016;-76
2024/02/09 15:10:07;;;;;;;;;;;11.90;99.90;;;;;;5001812;28;19921;-76
2024/02/09 15:12:34;;;;;;;;;;;11.90;99.90;;;;;;4995845;28;19979;-76
2024/02/09 15:15:01;;;;;;;;;;;11.90;99.90;;;;;;5015759;28;19921;-76
2024/02/09 15:17:28;;;;;;;;;;;11.90;99.90;;;;;;5017520;28;19921;-75
2024/02/09 15:19:54;;;;;;;;;;;11.90;99.90;;;;;;5012020;28;20003;-76
2024/02/09 15:22:19;;;;;;;;;;;11.90;99.90;;;;;;5033998;28;20000;-76
2024/02/09 15:24:45;;;;;;;;;;;11.90;99.90;;;;;;5016646;28;20304;-76
2024/02/09 15:27:13;;;;;;;;;;;11.90;99.90;;;;;;5016651;28;20000;-77
2024/02/09 15:29:39;;;;;;;;;;;11.80;99.90;;;;;;5012511;28;19953;-75
2024/02/09 15:32:05;;;;;;;;;;;11.80;99.90;;;;;;5012811;28;20342;-75
2024/02/09 15:34:31;;;;;;;;;;;11.80;99.90;;;;;;5006547;28;19932;-75
2024/02/09 15:37:00;;;;;;;;;;;11.80;99.90;;;;;;5024876;28;19929;-75
2024/02/09 15:39:26;;;;;;;;;;;11.80;99.90;;;;;;5000991;28;19917;-75
2024/02/09 15:41:58;;;;;;;;;;;11.80;99.90;;;;;;4997973;28;20293;-75
2024/02/09 15:44:24;;;;;;;;;;;11.80;99.90;;;;;;4994751;28;19917;-75
2024/02/09 15:46:50;;;;;;;;;;;11.80;99.90;;;;;;5032898;28;19917;-75
2024/02/09 15:49:15;;;;;;;;;;;11.80;99.90;;;;;;5007588;28;19921;-76
2024/02/09 15:51:41;;;;;;;;;;;11.70;99.90;;;;;;5005018;28;19936;-76
2024/02/09 15:54:07;;;;;;;;;;;11.80;99.90;;;;;;5000228;28;19917;-76
2024/02/09 15:56:35;;;;;;;;;;;11.70;99.90;;;;;;5017338;28;19936;-76
2024/02/09 15:59:01;;;;;;;;;;;11.70;99.90;;;;;;5001373;28;20301;-75
2024/02/09 16:01:39;;;;;;;;;;;11.70;99.90;;;;;;5033811;28;19917;-76
2024/02/09 16:04:05;;;;;;;;;;;11.70;99.90;;;;;;5018026;28;20360;-75
2024/02/09 16:06:31;;;;;;;;;;;11.70;99.90;;;;;;5029827;28;20007;-75
2024/02/09 16:08:56;;;;;;;;;;;11.70;99.90;;;;;;5018491;28;19917;-75
2024/02/09 16:11:22;;;;;;;;;;;11.70;99.90;;;;;;5024200;28;19921;-75
2024/02/09 16:13:48;;;;;;;;;;;11.70;99.90;;;;;;5013175;28;19917;-75
2024/02/09 16:16:14;;;;;;;;;;;11.70;99.90;;;;;;4981069;28;19964;-75